Hovedside
METAR-TAF:

METAR-TAF

Lufthavner :

Nassau, Bahamas

breddegrad: 25-03N, lengdegrad: 077-28W, høyde over havet: 3 m

Gjeldene værobservasjon

Denne rapporten ble laget for 1 time og 17 minutter siden, klokken 07:00 UTC
Vind 7 kt fra Øst
Temperatur 27°C
Luftfuktighet 74%
Trykk 1019 hPa
Sikt 10 km eller mer
Få skyer i en høyde av 2500 ft

METAR: MYNN 190700Z 10007KT 9999 FEW025 27/22 A3010

Tid: 04:17 (08:17 UTC)

Varsel

Denne rapporten ble laget for 4 timer og 17 minutter siden, klokken 04:00 UTC
Varsel gyldig fra 19. klokken 06 UTC til 20. klokken 06 UTC
Vind 9 kt fra Øst
Sikt 10 km eller mer
Spredte skyer i en høyde av 2500 ft

TAF: MYNN 190400Z 1906/2006 10009KT 9999 SCT025

Værobservasjoner og værvarsel for over 4000 flyplasser (METAR- og TAF-rapporter).

Tilgjengelige stasjoner er representert av de røde og gule prikkene på kartet.

Hold musepekeren over prikken for å se navnet på stasjonen.

Klikk så for å se værobservasjoner og -varsler.

For å forandre kartet kan du klikke på den grønne knappen med svart kryss for å zoome inn, på den grønne knappen med strek for å zoome ut, eller på de grønne pilene for å se tilstøtende kart.


METAR-TAF: